Terminal Aerodrome Forecast
Issued by NWS Twin Cities, MN

Home | Current Version | Previous Version | Text Only | Print | Product List | Glossary Off
Versions: 1 2 3 4 5 6 7 8 9 10 11 12 13 14 15 16 17 18 19 20 21 22 23 24 25 26 27

000
FTUS43 KMPX 010849 AAA
TAFMSP
TAF AMD
KMSP 010849Z 0109/0212 19007KT P6SM SCT070
     FM011100 23008KT P6SM SCT030 BKN100
      TEMPO 0111/0113 BKN020
     FM011400 26009KT P6SM SCT100
     FM011800 27011G16KT P6SM SCT100
     FM020000 28009KT P6SM SKC=

USA.gov is the U.S. government's official web portal to all federal, state and local government web resources and services.